KEWN/EWN METAR and TAF weather

Enter ICAO airport designator
Station Type Date Time Source
KEWN METAR 2019/08/21 02:54 UTC NOAA

KEWN 210254Z AUTO 22007KT 10SM CLR 27/25 A3011 RMK AO2 SLP197 T02670250 50012


Station Type Date Time Source
KEWN Decoded METAR 2019/08/21 02:54 UTC NOAA

Station name not available
Aug 20, 2019 - 10:54 PM EDT / 2019.08.21 0254 UTC
Wind: from the SW (220 degrees) at 8 MPH (7 KT):0
Visibility: 10 mile(s):0
Sky conditions: clear
Temperature: 80.1 F (26.7 C)
Dew Point: 77.0 F (25.0 C)
Relative Humidity: 90%
Pressure (altimeter): 30.11 in. Hg (1019 hPa)
Pressure tendency: 0.04 inches (1.2 hPa) higher than three hours ago
ob: KEWN 210254Z AUTO 22007KT 10SM CLR 27/25 A3011 RMK AO2 SLP197 T02670250 50012
cycle: 3

Station Type Date Time Source
KEWN TAF 2019/08/20 18:21 UTC NOAA

TAF KEWN 201720Z 2018/2118 23007KT P6SM SCT040
FM202100 22007KT P6SM VCSH SCT040
FM210200 22004KT P6SM BKN200

Example: see airport list